Time;durP1;ratioP1;P1;durP2;ratioP2;P2;SDS_P1;SDS_P2;PMS_P1;PMS_P2;Temp;Humidity;BMP_temperature;BMP_pressure;BME280_temperature;BME280_humidity;BME280_pressure;Samples;Min_cycle;Max_cycle;Signal;HPM_P1;HPM_P2
2023/02/22 00:04:03;;;;;;;10.63;7.30;;;;;;;6.68;100.00;92705.31;6226177;23;20043;-78
2023/02/22 00:06:29;;;;;;;9.13;7.50;;;;;;;6.65;100.00;92714.44;6226782;23;20016;-77
2023/02/22 00:08:56;;;;;;;10.65;7.72;;;;;;;6.76;100.00;92712.66;6227002;23;20345;-78
2023/02/22 00:11:21;;;;;;;9.20;6.70;;;;;;;6.77;100.00;92706.38;6226247;23;20064;-78
2023/02/22 00:13:49;;;;;;;9.90;7.20;;;;;;;6.70;100.00;92702.47;6226890;23;20467;-77
2023/02/22 00:16:22;;;;;;;10.52;7.78;;;;;;;6.66;100.00;92707.41;6225687;23;20024;-80
2023/02/22 00:18:48;;;;;;;9.38;7.10;;;;;;;6.63;100.00;92700.88;6228433;23;20341;-79
2023/02/22 00:21:15;;;;;;;9.45;7.15;;;;;;;6.64;100.00;92705.06;6230064;23;20027;-79
2023/02/22 00:23:46;;;;;;;9.68;7.63;;;;;;;6.63;100.00;92706.09;6230079;23;20031;-79
2023/02/22 00:26:20;;;;;;;10.85;7.60;;;;;;;6.64;100.00;92694.66;6232212;23;20013;-78
2023/02/22 00:28:51;;;;;;;11.32;8.15;;;;;;;6.64;100.00;92696.47;6232391;23;20013;-79
2023/02/22 00:31:18;;;;;;;11.20;7.32;;;;;;;6.64;100.00;92693.88;6205813;23;20515;-79
2023/02/22 00:33:44;;;;;;;10.57;7.03;;;;;;;6.64;100.00;92699.88;6205619;23;20009;-79
2023/02/22 00:36:11;;;;;;;10.52;6.95;;;;;;;6.65;100.00;92692.84;6206272;23;20043;-80
2023/02/22 00:38:37;;;;;;;9.00;7.10;;;;;;;6.66;100.00;92691.78;6205591;23;20067;-79
2023/02/22 00:41:04;;;;;;;11.82;7.20;;;;;;;6.66;100.00;92697.00;6182004;23;20012;-80
2023/02/22 00:43:30;;;;;;;10.65;7.20;;;;;;;6.65;100.00;92691.00;6232017;23;20023;-78
2023/02/22 00:45:56;;;;;;;13.57;7.53;;;;;;;6.67;100.00;92688.94;6206209;23;20008;-79
2023/02/22 00:48:23;;;;;;;10.50;7.38;;;;;;;6.70;100.00;92686.88;6232956;23;20202;-79
2023/02/22 00:50:54;;;;;;;8.63;6.70;;;;;;;6.72;100.00;92684.78;6231687;23;20032;-79
2023/02/22 00:53:21;;;;;;;11.00;6.93;;;;;;;6.66;100.00;92676.19;6180606;23;20039;-79
2023/02/22 00:55:47;;;;;;;9.98;7.07;;;;;;;6.66;100.00;92691.78;6233249;23;20031;-79
2023/02/22 00:58:12;;;;;;;9.15;7.22;;;;;;;6.62;100.00;92677.72;6230368;23;20017;-79
2023/02/22 01:00:40;;;;;;;9.05;7.20;;;;;;;6.61;100.00;92678.78;6205105;23;20039;-79
2023/02/22 01:03:09;;;;;;;8.95;7.13;;;;;;;6.61;100.00;92678.78;6206378;23;20107;-79
2023/02/22 01:05:37;;;;;;;12.50;7.35;;;;;;;6.63;100.00;92681.91;6205941;23;20023;-80
2023/02/22 01:08:05;;;;;;;8.27;6.80;;;;;;;6.60;100.00;92672.03;6205842;23;20013;-79
2023/02/22 01:10:33;;;;;;;10.52;7.20;;;;;;;6.70;100.00;92673.88;6180344;23;20004;-79
2023/02/22 01:13:00;;;;;;;10.20;7.30;;;;;;;6.68;100.00;92664.47;6231393;23;20012;-79
2023/02/22 01:15:29;;;;;;;11.18;7.32;;;;;;;6.60;100.00;92667.59;6232720;23;20044;-80
2023/02/22 01:17:57;;;;;;;9.10;7.25;;;;;;;6.63;100.00;92674.09;6205955;23;20007;-79
2023/02/22 01:20:25;;;;;;;11.15;7.40;;;;;;;6.63;100.00;92668.91;6205322;23;20009;-79
2023/02/22 01:22:52;;;;;;;11.77;7.07;;;;;;;6.63;100.00;92667.06;6231815;23;20070;-79
2023/02/22 01:25:22;;;;;;;10.05;6.95;;;;;;;6.63;100.00;92671.50;6206489;23;20066;-79
2023/02/22 01:27:49;;;;;;;8.93;6.97;;;;;;;6.62;100.00;92664.72;6204451;23;20012;-79
2023/02/22 01:30:18;;;;;;;9.30;6.60;;;;;;;6.68;100.00;92663.69;6230188;23;20072;-79
2023/02/22 01:32:44;;;;;;;8.50;6.63;;;;;;;6.69;100.00;92670.47;6231233;23;20072;-79
2023/02/22 01:35:14;;;;;;;9.73;6.97;;;;;;;6.80;100.00;92663.47;6230476;23;20027;-80
2023/02/22 01:37:40;;;;;;;9.88;7.50;;;;;;;6.65;100.00;92665.00;6203566;23;20392;-79
2023/02/22 01:40:09;;;;;;;9.07;7.57;;;;;;;6.58;100.00;92659.28;6230315;23;20031;-80
2023/02/22 01:42:35;;;;;;;10.80;7.50;;;;;;;6.56;100.00;92661.34;6231766;23;20013;-79
2023/02/22 01:45:29;;;;;;;9.85;7.30;;;;;;;6.62;100.00;92654.31;6230732;23;20000;-79
2023/02/22 01:48:10;;;;;;;11.40;7.32;;;;;;;6.59;100.00;92649.63;6230147;23;20277;-79
2023/02/22 01:50:52;;;;;;;11.32;7.80;;;;;;;6.54;100.00;92647.03;6229233;23;20095;-79
2023/02/22 01:53:20;;;;;;;11.80;7.35;;;;;;;6.52;100.00;92646.50;6231141;23;20012;-78
2023/02/22 01:55:47;;;;;;;10.20;7.10;;;;;;;6.50;100.00;92651.19;6230093;23;20004;-79
2023/02/22 01:58:15;;;;;;;8.98;7.28;;;;;;;6.49;100.00;92654.84;6204040;23;20019;-80
2023/02/22 02:00:43;;;;;;;10.50;7.13;;;;;;;6.43;100.00;92647.00;6229391;23;20013;-79
2023/02/22 02:03:22;;;;;;;11.30;7.80;;;;;;;6.42;100.00;92637.66;6229288;23;20441;-79
2023/02/22 02:05:51;;;;;;;10.40;7.13;;;;;;;6.46;100.00;92640.50;6230475;23;20019;-78
2023/02/22 02:08:31;;;;;;;10.57;7.82;;;;;;;6.45;100.00;92633.75;6229615;23;20073;-79
2023/02/22 02:10:58;;;;;;;11.07;7.90;;;;;;;6.49;100.00;92639.22;6229173;23;20016;-78
2023/02/22 02:13:26;;;;;;;9.70;7.68;;;;;;;6.50;100.00;92638.19;6205147;23;20017;-80
2023/02/22 02:15:54;;;;;;;11.52;8.20;;;;;;;6.51;100.00;92640.53;6228823;23;20011;-79
2023/02/22 02:18:22;;;;;;;11.18;8.25;;;;;;;6.53;100.00;92637.66;6230036;23;20043;-79
2023/02/22 02:21:10;;;;;;;11.30;8.18;;;;;;;6.53;100.00;92637.66;6205149;23;20016;-79
2023/02/22 02:23:47;;;;;;;10.90;8.02;;;;;;;6.55;100.00;92633.78;6230655;23;20008;-80
2023/02/22 02:26:44;;;;;;;11.15;7.88;;;;;;;6.56;100.00;92635.34;6230455;23;20554;-79
2023/02/22 02:29:47;;;;;;;12.55;7.40;;;;;;;6.54;100.00;92634.03;6204386;23;20019;-78
2023/02/22 02:32:29;;;;;;;10.20;7.85;;;;;;;6.49;100.00;92628.81;6203876;23;20032;-79
2023/02/22 02:35:22;;;;;;;9.07;7.32;;;;;;;6.49;100.00;92628.81;6230590;23;20016;-79
2023/02/22 02:38:01;;;;;;;10.45;7.72;;;;;;;6.44;100.00;92627.78;6178667;23;20095;-79
2023/02/22 02:40:55;;;;;;;9.90;7.60;;;;;;;6.52;100.00;92617.91;6203007;23;20004;-79
2023/02/22 02:43:30;;;;;;;11.80;7.97;;;;;;;6.41;100.00;92620.47;6203767;23;20507;-80
2023/02/22 02:46:16;;;;;;;10.95;7.65;;;;;;;6.44;100.00;92617.38;6229970;23;20008;-80
2023/02/22 02:48:50;;;;;;;10.50;7.95;;;;;;;6.45;100.00;92613.72;6228697;23;20015;-79
2023/02/22 02:51:18;;;;;;;11.70;8.20;;;;;;;6.37;100.00;92616.84;6202679;23;20043;-79
2023/02/22 02:53:47;;;;;;;10.43;7.95;;;;;;;6.38;100.00;92618.38;6203014;23;20424;-79
2023/02/22 02:56:12;;;;;;;11.23;7.95;;;;;;;6.34;100.00;92611.34;6229973;23;20012;-78
2023/02/22 02:58:51;;;;;;;9.68;7.75;;;;;;;6.30;100.00;92605.88;6179317;23;20023;-78
2023/02/22 03:01:46;;;;;;;10.52;8.15;;;;;;;6.31;100.00;92602.25;6229175;23;20005;-79
2023/02/22 03:04:16;;;;;;;9.88;7.65;;;;;;;6.28;100.00;92605.34;6153791;23;20020;-79
2023/02/22 03:07:00;;;;;;;10.95;8.43;;;;;;;6.25;100.00;92601.44;6203767;23;20102;-78
2023/02/22 03:09:33;;;;;;;11.45;8.45;;;;;;;6.24;100.00;92599.13;6229710;23;20008;-79
2023/02/22 03:12:31;;;;;;;11.35;7.95;;;;;;;6.25;100.00;92598.06;6230113;23;20025;-79
2023/02/22 03:15:10;;;;;;;13.63;8.48;;;;;;;6.25;100.00;92600.66;6153302;23;20012;-79
2023/02/22 03:17:47;;;;;;;12.10;8.48;;;;;;;6.25;100.00;92598.84;6203225;23;20016;-79
2023/02/22 03:20:25;;;;;;;10.93;8.45;;;;;;;6.27;100.00;92596.00;6202977;23;20349;-80
2023/02/22 03:23:00;;;;;;;11.85;8.43;;;;;;;6.25;100.00;92593.66;6229357;23;20008;-78
2023/02/22 03:25:37;;;;;;;10.82;8.15;;;;;;;6.22;100.00;92588.97;6229287;23;20016;-78
2023/02/22 03:28:10;;;;;;;12.07;9.15;;;;;;;6.22;100.00;92590.78;6177404;23;20016;-79
2023/02/22 03:30:45;;;;;;;13.10;8.63;;;;;;;6.22;100.00;92591.56;6203497;23;20016;-79
2023/02/22 03:33:19;;;;;;;11.15;8.18;;;;;;;6.24;100.00;92588.72;6203444;23;20012;-78
2023/02/22 03:35:55;;;;;;;11.95;8.88;;;;;;;6.23;100.00;92593.13;6203627;23;20051;-79
2023/02/22 03:38:25;;;;;;;11.73;8.57;;;;;;;6.22;100.00;92585.59;6230511;23;20008;-79
2023/02/22 03:40:58;;;;;;;12.10;8.65;;;;;;;6.23;100.00;92594.94;6203472;23;20008;-79
2023/02/22 03:43:27;;;;;;;;;;;;;;;6.24;100.00;92591.31;6204723;23;20023;-79
2023/02/22 03:45:57;;;;;;;13.18;9.10;;;;;;;6.24;100.00;92591.31;6204032;23;19908;-79
2023/02/22 03:48:37;;;;;;;12.55;8.65;;;;;;;6.24;100.00;92592.09;6228150;23;20016;-79
2023/02/22 03:51:05;;;;;;;12.73;8.82;;;;;;;6.24;100.00;92591.31;6203054;23;20019;-79
2023/02/22 03:53:33;;;;;;;12.48;8.75;;;;;;;6.22;100.00;92588.19;6203291;23;20005;-79
2023/02/22 03:56:01;;;;;;;16.63;8.43;;;;;;;6.19;100.00;92593.88;6203200;23;20027;-79
2023/02/22 03:58:30;;;;;;;11.57;8.13;;;;;;;6.18;100.00;92581.94;6203595;23;20009;-79
2023/02/22 04:00:56;;;;;;;11.73;8.45;;;;;;;6.20;100.00;92585.84;6202865;23;19985;-78
2023/02/22 04:03:22;;;;;;;11.65;8.65;;;;;;;6.16;100.00;92584.00;6229929;23;20043;-77
2023/02/22 04:05:49;;;;;;;11.93;8.85;;;;;;;6.20;100.00;92590.25;6229854;23;20052;-79
2023/02/22 04:08:16;;;;;;;10.82;8.60;;;;;;;6.18;100.00;92590.50;6202615;23;20017;-79
2023/02/22 04:10:41;;;;;;;11.85;8.75;;;;;;;6.18;100.00;92587.13;6178889;23;20060;-79
2023/02/22 04:13:09;;;;;;;11.70;8.60;;;;;;;6.20;100.00;92595.47;6203063;23;20050;-78
2023/02/22 04:15:37;;;;;;;13.00;8.65;;;;;;;6.22;100.00;92588.19;6203855;23;20021;-77
2023/02/22 04:18:04;;;;;;;12.02;8.55;;;;;;;6.23;100.00;92584.53;6203228;23;20009;-78
2023/02/22 04:20:30;;;;;;;10.18;8.30;;;;;;;6.23;100.00;92589.75;6178367;23;20013;-78
2023/02/22 04:23:01;;;;;;;11.80;8.55;;;;;;;6.19;100.00;92583.50;6179745;23;20021;-78
2023/02/22 04:25:27;;;;;;;10.52;8.45;;;;;;;6.19;100.00;92586.09;6210393;23;20044;-78
2023/02/22 04:27:55;;;;;;;12.02;7.70;;;;;;;6.23;100.00;92592.34;6228840;23;20016;-78
2023/02/22 04:30:31;;;;;;;10.85;8.25;;;;;;;6.22;100.00;92586.38;6228774;23;20013;-79
2023/02/22 04:32:57;;;;;;;11.07;8.07;;;;;;;6.22;100.00;92590.78;6228571;23;20017;-78
2023/02/22 04:35:22;;;;;;;10.98;8.13;;;;;;;6.20;100.00;92585.06;6203607;23;20004;-78
2023/02/22 04:37:48;;;;;;;12.20;8.00;;;;;;;6.20;100.00;92585.06;6203874;23;20462;-77
2023/02/22 04:40:15;;;;;;;10.05;7.30;;;;;;;6.21;100.00;92586.63;6229787;23;20035;-79
2023/02/22 04:42:41;;;;;;;10.30;7.82;;;;;;;6.21;100.00;92591.81;6230326;23;20020;-78
2023/02/22 04:45:09;;;;;;;10.40;7.78;;;;;;;6.19;100.00;92578.28;6155620;23;20019;-78
2023/02/22 04:47:36;;;;;;;10.80;8.02;;;;;;;6.21;100.00;92584.03;6206206;23;20039;-79
2023/02/22 04:50:04;;;;;;;10.02;7.63;;;;;;;6.21;100.00;92584.03;6230100;23;20433;-78
2023/02/22 04:52:30;;;;;;;11.30;7.45;;;;;;;6.21;100.00;92581.41;6231125;23;20076;-79
2023/02/22 04:54:56;;;;;;;11.13;7.82;;;;;;;6.21;100.00;92586.63;6230457;23;20017;-79
2023/02/22 04:57:22;;;;;;;11.68;7.63;;;;;;;6.19;100.00;92586.09;6229934;23;20035;-79
2023/02/22 04:59:49;;;;;;;10.88;8.13;;;;;;;6.17;100.00;92585.56;6229840;23;20027;-79
2023/02/22 05:02:17;;;;;;;9.02;7.38;;;;;;;6.16;100.00;92584.78;6204509;23;20047;-78
2023/02/22 05:04:42;;;;;;;12.43;8.05;;;;;;;6.18;100.00;92581.94;6231035;23;19997;-79
2023/02/22 05:07:08;;;;;;;11.45;8.20;;;;;;;6.20;100.00;92590.25;6205262;23;20074;-78
2023/02/22 05:09:33;;;;;;;9.98;8.18;;;;;;;6.20;100.00;92585.84;6232007;23;20012;-78
2023/02/22 05:11:59;;;;;;;11.23;8.55;;;;;;;6.20;100.00;92585.84;6231677;23;20012;-78
2023/02/22 05:14:25;;;;;;;12.70;8.52;;;;;;;6.17;100.00;92577.75;6232390;23;20028;-78
2023/02/22 05:16:56;;;;;;;10.50;8.23;;;;;;;6.17;100.00;92580.38;6230110;23;20107;-78
2023/02/22 05:19:21;;;;;;;10.60;8.20;;;;;;;6.16;100.00;92591.81;6231677;23;20019;-79
2023/02/22 05:21:47;;;;;;;11.45;8.10;;;;;;;6.12;100.00;92586.34;6230729;23;20056;-79
2023/02/22 05:24:13;;;;;;;11.63;8.43;;;;;;;6.10;100.00;92595.41;6232218;23;20068;-78
2023/02/22 05:26:39;;;;;;;11.57;8.43;;;;;;;6.09;100.00;92591.28;6231845;23;20020;-79
2023/02/22 05:29:05;;;;;;;10.85;8.38;;;;;;;6.09;100.00;92589.44;6231954;23;20026;-78
2023/02/22 05:31:31;;;;;;;15.60;8.30;;;;;;;6.07;100.00;92585.56;6205759;23;20017;-79
2023/02/22 05:33:57;;;;;;;12.13;8.52;;;;;;;6.08;100.00;92592.28;6180610;23;20020;-79
2023/02/22 05:36:23;;;;;;;12.10;8.80;;;;;;;6.08;100.00;92592.28;6230276;23;20013;-78
2023/02/22 05:38:48;;;;;;;11.07;8.50;;;;;;;6.02;100.00;92581.13;6231344;23;20063;-79
2023/02/22 05:41:14;;;;;;;12.15;8.32;;;;;;;6.02;100.00;92586.31;6229556;23;20012;-78
2023/02/22 05:43:40;;;;;;;11.57;8.32;;;;;;;6.03;100.00;92587.88;6225225;23;20088;-80
2023/02/22 05:46:06;;;;;;;13.02;8.80;;;;;;;6.01;100.00;92582.94;6174025;23;20016;-78
2023/02/22 05:48:32;;;;;;;11.15;8.73;;;;;;;6.05;100.00;92583.97;6226658;23;20480;-78
2023/02/22 05:50:58;;;;;;;10.55;8.10;;;;;;;6.05;100.00;92591.75;6199630;23;20067;-78
2023/02/22 05:53:24;;;;;;;12.05;8.50;;;;;;;6.04;100.00;92592.81;6201143;23;20497;-77
2023/02/22 05:55:50;;;;;;;11.05;8.52;;;;;;;6.03;100.00;92596.47;6225827;23;20017;-78
2023/02/22 05:58:16;;;;;;;12.23;8.27;;;;;;;6.00;100.00;92585.78;6226555;23;20013;-78
2023/02/22 06:00:41;;;;;;;11.15;7.97;;;;;;;6.03;100.00;92591.25;6225792;23;20019;-76
2023/02/22 06:03:08;;;;;;;11.25;8.30;;;;;;;6.04;100.00;92586.84;6224955;23;20008;-78
2023/02/22 06:05:35;;;;;;;13.73;8.85;;;;;;;6.05;100.00;92586.56;6225485;23;20013;-78
2023/02/22 06:08:02;;;;;;;11.27;8.75;;;;;;;6.03;100.00;92590.47;6223841;23;20038;-79
2023/02/22 06:10:28;;;;;;;13.02;8.15;;;;;;;6.03;100.00;92588.66;6199931;23;20012;-78
2023/02/22 06:12:54;;;;;;;11.70;8.55;;;;;;;6.03;100.00;92583.47;6227253;23;20020;-78
2023/02/22 06:15:21;;;;;;;12.45;8.60;;;;;;;6.02;100.00;92588.91;6222478;23;20017;-78
2023/02/22 06:17:48;;;;;;;11.82;8.88;;;;;;;6.03;100.00;92591.25;6225079;23;20036;-78
2023/02/22 06:20:16;;;;;;;11.93;8.63;;;;;;;6.05;100.00;92594.38;6199095;23;20064;-78
2023/02/22 06:22:43;;;;;;;12.30;8.48;;;;;;;6.05;100.00;92591.75;6225178;23;20003;-77
2023/02/22 06:25:13;;;;;;;12.85;9.25;;;;;;;6.04;100.00;92586.84;6173786;23;20452;-79
2023/02/22 06:27:38;;;;;;;13.18;8.52;;;;;;;6.05;100.00;92593.59;6201745;23;20016;-78
2023/02/22 06:30:04;;;;;;;10.93;8.88;;;;;;;6.11;100.00;92600.38;6180297;23;20030;-77
2023/02/22 06:32:30;;;;;;;14.50;9.25;;;;;;;6.07;100.00;92601.91;6198408;23;20013;-77
2023/02/22 06:34:56;;;;;;;10.95;8.57;;;;;;;6.04;100.00;92597.25;6174132;23;20013;-78
2023/02/22 06:37:21;;;;;;;15.60;9.45;;;;;;;5.96;100.00;92600.31;6225952;23;20058;-77
2023/02/22 06:39:47;;;;;;;14.57;9.73;;;;;;;5.94;100.00;92603.16;6198226;23;20027;-77
2023/02/22 06:42:14;;;;;;;13.50;9.68;;;;;;;5.94;100.00;92602.34;6199087;23;20009;-77
2023/02/22 06:44:39;;;;;;;14.77;9.52;;;;;;;5.92;100.00;92610.44;6221901;23;20241;-78
2023/02/22 06:47:05;;;;;;;14.52;9.55;;;;;;;5.89;100.00;92615.34;6220760;23;20017;-79
2023/02/22 06:49:31;;;;;;;14.18;10.52;;;;;;;5.84;100.00;92605.69;6229226;23;20016;-79
2023/02/22 06:51:56;;;;;;;14.43;10.30;;;;;;;5.89;100.00;92616.09;6230348;23;20053;-82
2023/02/22 06:54:22;;;;;;;13.95;10.48;;;;;;;5.78;100.00;92615.28;6229745;23;20012;-83
2023/02/22 06:56:48;;;;;;;12.60;9.48;;;;;;;5.98;100.00;92622.41;6224699;23;20017;-79
2023/02/22 06:59:14;;;;;;;15.23;10.18;;;;;;;5.96;100.00;92616.69;6226012;23;20005;-80
2023/02/22 07:01:41;;;;;;;13.43;10.02;;;;;;;5.92;100.00;92617.41;6198082;23;20016;-81
2023/02/22 07:04:07;;;;;;;14.02;10.45;;;;;;;5.91;100.00;92619.25;6199516;23;20016;-80
2023/02/22 07:06:33;;;;;;;16.02;10.43;;;;;;;5.93;100.00;92622.38;6228719;23;20003;-78
2023/02/22 07:08:59;;;;;;;14.18;11.32;;;;;;;5.84;100.00;92622.06;6200620;23;20040;-79
2023/02/22 07:11:25;;;;;;;15.25;11.63;;;;;;;5.78;100.00;92627.50;6225638;23;20017;-80
2023/02/22 07:13:51;;;;;;;13.73;10.48;;;;;;;5.71;100.00;92622.53;6199697;23;20036;-79
2023/02/22 07:16:17;;;;;;;17.85;11.90;;;;;;;5.82;100.00;92628.56;6198509;23;20020;-80
2023/02/22 07:18:42;;;;;;;16.05;10.80;;;;;;;5.82;100.00;92618.16;6224369;23;20013;-78
2023/02/22 07:21:08;;;;;;;13.02;9.35;;;;;;;5.87;100.00;92625.97;6174252;23;20005;-79
2023/02/22 07:23:35;;;;;;;16.15;10.70;;;;;;;5.77;100.00;92623.34;6224500;23;20445;-78
2023/02/22 07:26:01;;;;;;;12.65;9.77;;;;;;;5.77;100.00;92624.13;6213385;23;20023;-80
2023/02/22 07:28:27;;;;;;;14.55;10.88;;;;;;;5.79;100.00;92631.66;6228073;23;20009;-79
2023/02/22 07:30:53;;;;;;;13.10;9.95;;;;;;;5.79;100.00;92626.47;6224036;23;20018;-79
2023/02/22 07:33:18;;;;;;;14.57;10.73;;;;;;;5.69;100.00;92626.41;6225225;23;20275;-78
2023/02/22 07:35:47;;;;;;;14.23;11.20;;;;;;;5.72;100.00;92623.28;6226498;23;20024;-78
2023/02/22 07:38:14;;;;;;;13.63;9.85;;;;;;;5.73;100.00;92627.47;6223121;23;20057;-78
2023/02/22 07:40:41;;;;;;;15.70;10.60;;;;;;;5.81;100.00;92629.59;6220716;23;20311;-78
2023/02/22 07:43:15;;;;;;;15.25;11.32;;;;;;;5.75;100.00;92630.59;6218383;23;20000;-79
2023/02/22 07:45:43;;;;;;;15.25;10.70;;;;;;;5.70;100.00;92628.00;6223216;23;20012;-78
2023/02/22 07:48:09;;;;;;;15.27;10.30;;;;;;;5.72;100.00;92631.09;6221492;23;20009;-78
2023/02/22 07:50:35;;;;;;;15.50;10.60;;;;;;;5.74;100.00;92626.44;6221676;23;20081;-77
2023/02/22 07:53:04;;;;;;;17.42;11.48;;;;;;;5.77;100.00;92625.94;6218928;23;20465;-79
2023/02/22 07:55:31;;;;;;;17.13;11.05;;;;;;;5.75;100.00;92631.38;6219054;23;20015;-77
2023/02/22 07:58:00;;;;;;;15.73;10.85;;;;;;;5.74;100.00;92635.03;6213993;23;20252;-76
2023/02/22 08:00:38;;;;;;;17.08;11.00;;;;;;;5.71;100.00;92637.34;6213999;23;20000;-77
2023/02/22 08:03:08;;;;;;;15.60;11.32;;;;;;;5.74;100.00;92629.03;6213736;23;20067;-77
2023/02/22 08:05:36;;;;;;;15.52;11.35;;;;;;;5.75;100.00;92631.38;6216187;23;20008;-77
2023/02/22 08:08:05;;;;;;;17.48;12.15;;;;;;;5.69;100.00;92624.59;6217639;23;20421;-77
2023/02/22 08:10:32;;;;;;;15.48;10.45;;;;;;;5.76;100.00;92621.75;6215787;23;20020;-77
2023/02/22 08:12:58;;;;;;;13.73;10.13;;;;;;;5.89;100.00;92621.31;6214201;23;20091;-76
2023/02/22 08:15:29;;;;;;;17.02;10.52;;;;;;;5.80;100.00;92628.03;6218113;23;20012;-76
2023/02/22 08:17:56;;;;;;;14.97;10.87;;;;;;;5.71;100.00;92629.53;6217386;23;20026;-76
2023/02/22 08:20:23;;;;;;;15.40;11.30;;;;;;;5.63;100.00;92621.19;6216918;23;19996;-77
2023/02/22 08:22:49;;;;;;;15.82;11.43;;;;;;;5.81;100.00;92624.41;6217670;23;20089;-77
2023/02/22 08:25:16;;;;;;;17.85;11.45;;;;;;;5.77;100.00;92620.75;6216026;23;20021;-77
2023/02/22 08:27:42;;;;;;;22.42;13.02;;;;;;;5.73;100.00;92617.09;6218053;23;20018;-77
2023/02/22 08:30:14;;;;;;;21.50;12.20;;;;;;;5.78;100.00;92622.28;6217823;23;20012;-77
2023/02/22 08:32:40;;;;;;;23.88;12.75;;;;;;;5.77;100.00;92612.94;6218151;23;20063;-77
2023/02/22 08:35:06;;;;;;;20.15;12.23;;;;;;;5.81;100.00;92624.41;6218080;23;20012;-77
2023/02/22 08:37:33;;;;;;;22.58;12.88;;;;;;;5.84;100.00;92616.09;6218082;23;20012;-77
2023/02/22 08:39:59;;;;;;;18.52;12.02;;;;;;;5.90;100.00;92614.28;6217750;23;20051;-77
2023/02/22 08:42:24;;;;;;;18.92;11.90;;;;;;;5.94;100.00;92615.34;6217674;23;20013;-77
2023/02/22 08:44:50;;;;;;;19.23;12.82;;;;;;;5.98;100.00;92616.44;6218309;23;20020;-77
2023/02/22 08:47:15;;;;;;;20.50;11.80;;;;;;;5.96;100.00;92614.09;6191637;23;20047;-76
2023/02/22 08:49:41;;;;;;;17.55;12.07;;;;;;;5.95;100.00;92622.94;6214869;23;20049;-77
2023/02/22 08:52:07;;;;;;;14.32;10.40;;;;;;;6.18;100.00;92613.13;6213657;23;20215;-77
2023/02/22 08:54:33;;;;;;;15.45;11.45;;;;;;;6.16;100.00;92617.81;6215887;23;20066;-77
2023/02/22 08:56:58;;;;;;;19.50;12.10;;;;;;;6.25;100.00;92618.88;6215999;23;20012;-77
2023/02/22 08:59:24;;;;;;;13.63;10.63;;;;;;;6.16;100.00;92613.38;6212770;23;20021;-77
2023/02/22 09:01:50;;;;;;;16.83;11.18;;;;;;;6.13;100.00;92615.72;6213782;23;20337;-76
2023/02/22 09:04:16;;;;;;;17.13;11.80;;;;;;;6.11;100.00;92612.59;6214254;23;20024;-76
2023/02/22 09:06:43;;;;;;;18.60;11.93;;;;;;;6.13;100.00;92610.53;6215908;23;20013;-76
2023/02/22 09:09:08;;;;;;;18.30;12.00;;;;;;;6.20;100.00;92605.88;6215752;23;20001;-76
2023/02/22 09:11:35;;;;;;;17.30;12.07;;;;;;;6.20;100.00;92616.25;6215104;23;20342;-76
2023/02/22 09:14:00;;;;;;;16.52;11.65;;;;;;;6.18;100.00;92613.91;6213561;23;20043;-76
2023/02/22 09:16:26;;;;;;;15.82;11.82;;;;;;;6.22;100.00;92611.59;6213168;23;20005;-77
2023/02/22 09:18:51;;;;;;;15.93;11.70;;;;;;;6.28;100.00;92607.16;6214320;23;20040;-76
2023/02/22 09:21:17;;;;;;;17.25;12.05;;;;;;;6.24;100.00;92610.28;6213058;23;20009;-77
2023/02/22 09:23:46;;;;;;;16.48;11.88;;;;;;;6.32;100.00;92601.22;6213498;23;20021;-76
2023/02/22 09:26:14;;;;;;;17.58;12.10;;;;;;;6.30;100.00;92610.31;6214015;23;20047;-77
2023/02/22 09:28:40;;;;;;;16.85;11.80;;;;;;;6.46;100.00;92610.09;6215434;23;20031;-77
2023/02/22 09:31:07;;;;;;;16.27;11.93;;;;;;;6.41;100.00;92602.25;6213854;23;20464;-77
2023/02/22 09:33:32;;;;;;;17.05;11.85;;;;;;;6.41;100.00;92599.66;6186986;23;20376;-77
2023/02/22 09:35:59;;;;;;;18.17;11.98;;;;;;;6.42;100.00;92588.25;6214299;23;20074;-77
2023/02/22 09:38:28;;;;;;;15.32;10.73;;;;;;;6.67;100.00;92591.91;6212727;23;20040;-76
2023/02/22 09:41:37;;;;;;;17.08;11.48;;;;;;;6.59;100.00;92595.00;6214608;23;20326;-77
2023/02/22 09:44:35;;;;;;;15.02;10.35;;;;;;;6.62;100.00;92597.09;6177637;23;20066;-76
2023/02/22 09:47:03;;;;;;;16.35;11.20;;;;;;;6.68;100.00;92593.47;6189874;23;20348;-77
2023/02/22 09:49:47;;;;;;;18.42;13.13;;;;;;;6.75;100.00;92591.38;6214294;23;20024;-77
2023/02/22 09:52:12;;;;;;;16.65;11.57;;;;;;;6.80;100.00;92593.22;6215291;23;20012;-77
2023/02/22 09:54:42;;;;;;;17.05;11.55;;;;;;;6.79;100.00;92587.22;6211735;23;20326;-77
2023/02/22 09:57:15;;;;;;;18.42;12.65;;;;;;;6.77;100.00;92591.91;6188965;23;20019;-77
2023/02/22 09:59:52;;;;;;;19.17;12.77;;;;;;;6.74;100.00;92589.84;6214145;23;20012;-77
2023/02/22 10:02:33;;;;;;;26.60;19.15;;;;;;;6.78;100.00;92583.06;6213771;23;20345;-76
2023/02/22 10:05:05;;;;;;;22.73;15.75;;;;;;;6.87;100.00;92591.94;6213958;23;20074;-77
2023/02/22 10:07:37;;;;;;;22.73;16.00;;;;;;;6.86;100.00;92594.78;6214112;23;20046;-77
2023/02/22 10:10:05;;;;;;;15.15;11.43;;;;;;;6.92;100.00;92579.97;6214643;23;20012;-76
2023/02/22 10:12:34;;;;;;;19.63;14.60;;;;;;;7.02;100.00;92583.31;6213940;23;20000;-76
2023/02/22 10:15:37;;;;;;;18.48;14.55;;;;;;;7.20;100.00;92581.22;6215520;23;20317;-76
2023/02/22 10:18:39;;;;;;;13.82;10.88;;;;;;;7.36;100.00;92581.97;6189304;23;20009;-77
2023/02/22 10:21:46;;;;;;;16.83;11.57;;;;;;;7.49;100.00;92578.84;6189467;23;20012;-77
2023/02/22 10:24:44;;;;;;;16.95;10.80;;;;;;;7.60;100.00;92587.41;6214560;23;20027;-76
2023/02/22 10:27:27;;;;;;;14.70;10.88;;;;;;;7.77;100.00;92579.28;6214278;23;20043;-78
2023/02/22 10:30:22;;;;;;;14.93;11.25;;;;;;;7.84;100.00;92574.56;6215616;23;20009;-78
2023/02/22 10:33:04;;;;;;;20.15;11.75;;;;;;;7.94;100.00;92577.13;6220523;23;20016;-78
2023/02/22 10:35:34;;;;;;;20.98;13.38;;;;;;;8.01;100.00;92566.41;6219077;23;20036;-78
2023/02/22 10:38:22;;;;;;;18.02;12.68;;;;;;;8.16;100.00;92576.00;6218340;23;20024;-78
2023/02/22 10:41:05;;;;;;;16.70;11.90;;;;;;;8.28;100.00;92566.78;6189580;23;20012;-77
2023/02/22 10:43:31;;;;;;;19.10;11.93;;;;;;;8.47;100.00;92566.22;6217856;23;20353;-79
2023/02/22 10:46:02;;;;;;;16.10;11.10;;;;;;;8.62;100.00;92557.50;6218703;23;20344;-79
2023/02/22 10:48:31;;;;;;;15.85;10.13;;;;;;;8.94;100.00;92560.38;6192205;23;20042;-78
2023/02/22 10:51:02;;;;;;;17.55;11.55;;;;;;;8.95;100.00;92555.94;6217255;23;20028;-76
2023/02/22 10:53:28;;;;;;;16.33;12.15;;;;;;;9.13;100.00;92557.88;6190884;23;20091;-78
2023/02/22 10:56:27;;;;;;;12.27;8.98;;;;;;;9.25;100.00;92554.09;6217632;23;20051;-78
2023/02/22 10:59:01;;;;;;;18.48;13.30;;;;;;;9.02;100.00;92545.19;6151750;23;20047;-78
2023/02/22 11:01:39;;;;;;;17.83;11.80;;;;;;;9.01;100.00;92543.63;6217262;23;20008;-78
2023/02/22 11:04:13;;;;;;;18.85;13.13;;;;;;;8.81;100.00;92541.97;6218801;23;20012;-78
2023/02/22 11:06:47;;;;;;;18.05;13.05;;;;;;;8.79;100.00;92531.78;6219485;23;20016;-79
2023/02/22 11:09:22;;;;;;;21.92;13.10;;;;;;;8.74;100.00;92529.22;6167735;23;20020;-79
2023/02/22 11:12:07;;;;;;;14.20;10.35;;;;;;;8.61;100.00;92533.22;6220551;23;20147;-78
2023/02/22 11:14:32;;;;;;;18.75;13.52;;;;;;;8.51;100.00;92531.47;6217330;23;20135;-77
2023/02/22 11:17:00;;;;;;;21.33;13.00;;;;;;;8.74;100.00;92519.56;6217929;23;20421;-77
2023/02/22 11:19:27;;;;;;;15.10;9.85;;;;;;;8.71;100.00;92527.94;6220209;23;20012;-79
2023/02/22 11:22:02;;;;;;;19.00;14.20;;;;;;;8.45;100.00;92523.97;6218761;23;20426;-78
2023/02/22 11:24:30;;;;;;;18.40;13.90;;;;;;;8.54;100.00;92511.91;6218038;23;20039;-78
2023/02/22 11:27:00;;;;;;;19.98;13.75;;;;;;;8.66;100.00;92503.72;6211436;23;20027;-78
2023/02/22 11:29:35;;;;;;;19.33;12.95;;;;;;;8.70;100.00;92507.34;6216735;23;20345;-78
2023/02/22 11:32:13;;;;;;;17.25;12.23;;;;;;;8.79;100.00;92497.88;6215779;23;20013;-78
2023/02/22 11:34:41;;;;;;;12.10;7.85;;;;;;;8.76;100.00;92506.25;6218314;23;20012;-78
2023/02/22 11:37:32;;;;;;;18.83;11.63;;;;;;;8.56;100.00;92496.75;6218033;23;20453;-78
2023/02/22 11:40:21;;;;;;;19.02;12.57;;;;;;;8.53;100.00;92495.47;6189680;23;20063;-78
2023/02/22 11:42:48;;;;;;;15.13;10.45;;;;;;;8.64;100.00;92492.75;6216838;23;20090;-78